Anza Borrego Desert State Park, California Weather observations

Data are for 10 minute period ending at time listed.
 Day   Time   Solar   Ave.   Ave.  Ave.  Vector  Max.   Baro.   Total    
  of    of     Rad.   Air    Rel.  Wind   Wind   Wind  Press.  Precip.   
Year   Day            Temp.  Hum.  Speed  Dir.   Gust                    
2016   (PST)  Kw/m2    F      %     mph   deg.    mph    mb.     in.     
-------------------------------------------------------------------------
 206    7:40   0.43   90.4    56    3.6   146     7.2   981.4    0.00 
 206    7:50   0.46   90.8    56    4.8   116     9.6   981.5    0.00 
 206    8:00   0.49   89.8    59    6.7   123     9.9   981.6    0.00 
 206    8:10   0.53   90.5    58    5.0   130     8.5   981.7    0.00 
 206    8:20   0.56   91.2    56    6.6   137    12.6   981.8    0.00 
 206    8:30   0.59   91.4    53    7.9   140    11.9   981.9    0.00 
 206    8:40   0.62   91.1    52    7.2   140    13.7   982.0    0.00 
 206    8:50   0.65   92.1    50    6.2   152    10.3   982.0    0.00 
 206    9:00   0.68   93.0    49    4.9   146     9.4   981.9    0.00 
 206    9:10   0.71   94.1    46    5.9   134     9.2   981.9    0.00 
 206    9:20   0.74   94.0    45    4.6   106     7.4   981.8    0.00 
 206    9:30   0.76   95.4    42    4.6   117     8.2   981.8    0.00 
 206    9:40   0.78   95.0    44    7.0   119    11.4   981.8    0.00 
 206    9:50   0.81   95.7    42    4.9   101     9.5   981.8    0.00 
 206   10:00   0.83   97.1    38    5.9   118     9.7   981.7    0.00 
 206   10:10   0.84   97.5    38    5.9   108    11.2   981.7    0.00 
 206   10:20   0.84   97.2    36    6.6    89    11.5   981.6    0.00 
 206   10:30   0.88   98.2    36    3.9   119     7.1   981.6    0.00 
 206   10:40   0.90   98.7    37    5.0    83    10.1   981.6    0.00 
 206   10:50   0.92   99.2    37    5.8    88    12.2   981.4    0.00 
 206   11:00   0.89   99.9    36    3.6   136     7.3   981.2    0.00 
 206   11:10   0.89   99.4    36    4.3   229     7.7   981.0    0.00 
 206   11:20   0.82  100.2    35    3.3    45     7.7   980.7    0.00 
 206   11:30   0.89  100.5    35    4.5   110     9.9   980.6    0.00 
 206   11:40   0.96  100.3    35    5.7    86    10.0   980.5    0.00 
 206   11:50   0.69  100.4    34    3.5   345     7.2   980.4    0.00 
 206   12:00   0.90  102.3    32    2.9    82     6.4   980.2    0.00 
 206   12:10   0.96  102.6    31    4.2    65    10.2   980.0    0.00 
 206   12:20   0.95  103.4    29    5.1   115    10.5   979.9    0.00 
 206   12:30   0.93  103.4    29    4.6   119    11.0   979.7    0.00 
 206   12:40   0.90  104.4    28    4.1   106     8.1   979.6    0.00 
 206   12:50   0.91  105.0    27    5.5    87    11.5   979.5    0.00 
 206   13:00   0.90  105.5    28    5.1   147     8.8   979.4    0.00 
 206   13:10   0.89  105.5    29    7.7   102    14.4   979.2    0.00 
 206   13:20   0.88  104.5    29    5.9    69    13.3   979.1    0.00 
 206   13:30   0.86  105.2    29    6.1    93    12.7   979.1    0.00 
 206   13:40   0.84  105.5    28    9.2    98    13.6   979.0    0.00 
 206   13:50   0.83  106.1    28    5.4   143     9.7   979.0    0.00 
 206   14:00   0.81  106.8    28    6.0   125    12.7   978.9    0.00 
 206   14:10   0.79  105.9    29    9.3   116    13.7   978.6    0.00 
 206   14:20   0.79  105.3    30    7.6   111    15.1   978.5    0.00 
 206   14:30   0.72  106.3    28    9.5   107    17.0   978.4    0.00 
 206   14:40   0.70  106.5    28    9.0   114    15.6   978.3    0.00 
 206   14:50   0.57  106.5    27    9.4   112    15.9   978.2    0.00 
 206   15:00   0.57  106.0    27    7.7   133    12.4   978.2    0.00 
 206   15:10   0.55  106.3    26    9.0   118    16.5   978.2    0.00 
 206   15:20   0.59  106.8    25    7.8   126    18.3   978.2    0.00 
 206   15:30   0.46  107.1    24    7.3   104    14.4   978.0    0.00 
 206   15:40   0.56  106.9    24    6.6   125    15.6   978.0    0.00 
 206   15:50   0.53  107.5    23    7.1   101    12.5   977.9    0.00 
 206   16:00   0.50  107.0    25    4.8   116    10.1   977.8    0.00 
 206   16:10   0.47  107.5    24    6.6    97    11.5   977.7    0.00 
 206   16:20   0.43  107.5    23    6.0    84    12.7   977.7    0.00 
 206   16:30   0.42  107.5    24    7.3    93    11.0   977.6    0.00 
 206   16:40   0.41  107.6    23    6.8   101    13.1   977.6    0.00 
 206   16:50   0.34  107.6    23    8.0   106    13.3   977.6    0.00 
 206   17:00   0.38  108.6    22    3.6    82     8.6   977.5    0.00 
 206   17:10   0.33  108.3    22    6.3    89    11.6   977.5    0.00 
 206   17:20   0.22  107.7    22    4.5    44     8.1   977.5    0.00 
 206   17:30   0.20  107.4    22    7.2    43    11.6   977.6    0.00 
 206   17:40   0.16  107.2    17    7.7   326    17.8   977.6    0.00 
 206   17:50   0.08  105.6    17   11.8   323    17.0   977.6    0.00 
 206   18:00   0.08  105.0    17   12.4   316    19.4   977.6    0.00 
 206   18:10   0.07  104.2    17   12.6   318    18.3   977.6    0.00 
 206   18:20   0.05  103.8    17   11.9   309    18.1   977.7    0.00 
 206   18:30   0.03  103.5    18    9.1   308    15.7   977.7    0.00 
 206   18:40   0.02  103.2    17   10.3   311    15.8   977.7    0.00 
 206   18:50   0.01  102.9    17    9.0   311    15.5   977.7    0.00 
 206   19:00   0.00  102.5    17    9.2   314    15.9   977.8    0.00 
 206   19:10   0.00  102.1    17    9.9   306    17.1   977.9    0.00 
 206   19:20   0.00  101.8    17   10.6   316    16.2   977.9    0.00 
 206   19:30   0.00  101.4    16    9.7   313    16.3   978.0    0.00 
 206   19:40   0.00  101.2    16    9.8   310    14.0   978.1    0.00 
 206   19:50   0.00  100.9    16    8.4   318    14.5   978.3    0.00 
 206   20:00   0.00  100.7    17    3.8   336    11.2   978.4    0.00 
 206   20:10   0.00  100.3    17    2.3   199     5.6   978.5    0.00 
 206   20:20   0.00  100.0    17    3.8    45     6.4   978.6    0.00 
 206   20:30   0.00   99.4    17    3.2    29     6.2   978.8    0.00 
 206   20:40   0.00   98.9    18    3.5    36     7.2   978.9    0.00 
 206   20:50   0.00   98.5    18    3.3   342    10.3   978.9    0.00 
 206   21:00   0.00   99.2    17    7.4   326    11.2   978.9    0.00 
 206   21:10   0.00   97.6    18    5.4    11     7.7   978.9    0.00 
 206   21:20   0.00   97.2    18    4.4    46     7.5   978.9    0.00 
 206   21:30   0.00   96.9    18    3.0    14     5.5   979.0    0.00 
 206   21:40   0.00   96.5    19    4.7   115     7.4   978.9    0.00 
 206   21:50   0.00   95.7    19    5.8   124     7.3   978.9    0.00 
 206   22:00   0.00   95.3    19    2.5   162     4.7   978.9    0.00 
 206   22:10   0.00   95.0    19    5.0   244     7.8   978.9    0.00 
 206   22:20   0.00   95.9    18    3.3   178     6.6   978.9    0.00 
 206   22:30   0.00   95.3    18    3.5   150     4.9   978.9    0.00 
 206   22:40   0.00   93.9    18    3.0   132     4.1   978.9    0.00 
 206   22:50   0.00   94.4    18    9.7   170    15.9   978.8    0.00 
 206   23:00   0.00   94.6    18   12.2   158    16.5   978.9    0.00 
 206   23:10   0.00   93.2    25   12.8   152    15.9   979.0    0.00 
 206   23:20   0.00   91.7    36   11.8   152    15.1   979.2    0.00 
 206   23:30   0.00   90.8    39    9.7   162    13.9   979.3    0.00 
 206   23:40   0.00   90.6    40    6.8   164    10.4   979.4    0.00 
 206   23:50   0.00   90.4    40    8.1   164    11.8   979.4    0.00 
 207    0:00   0.00   90.3    41    8.7   159    11.8   979.5    0.00 
 207    0:10   0.00   89.7    44    6.2   157    10.2   979.6    0.00 
 207    0:20   0.00   89.3    46    2.5   128     4.7   979.6    0.00 
 207    0:30   0.00   89.0    47    2.0    56     3.6   979.6    0.00 
 207    0:40   0.00   88.6    50    2.3    86     5.4   979.6    0.00 
 207    0:50   0.00   87.9    53    3.3   108     4.7   979.6    0.00 
 207    1:00   0.00   87.5    55    3.6   113     5.4   979.5    0.00 
 207    1:10   0.00   86.9    57    2.9   117     4.4   979.5    0.00 
 207    1:20   0.00   86.5    59    2.8   123     5.3   979.5    0.00 
 207    1:30   0.00   86.2    60    2.8   148     5.4   979.4    0.00 
 207    1:40   0.00   85.9    61    3.5   157     4.9   979.4    0.00 
 207    1:50   0.00   85.9    61    4.5   152     6.6   979.4    0.00 
 207    2:00   0.00   85.7    63    6.1   150     8.3   979.6    0.00 
 207    2:10   0.00   85.4    64    5.0   164     6.9   979.6    0.00 
 207    2:20   0.00   85.3    64    3.7   178     5.9   979.5    0.00 
 207    2:30   0.00   85.3    63    2.7   162     4.5   979.5    0.00 
 207    2:40   0.00   85.3    64    2.0    60     3.7   979.4    0.00 
 207    2:50   0.00   85.0    66    2.1    57     3.1   979.4    0.00 
 207    3:00   0.00   84.5    68    2.9    65     3.8   979.4    0.00 
 207    3:10   0.00   84.2    69    2.4    30     4.5   979.5    0.00 
 207    3:20   0.00   83.7    70    2.4     6     3.3   979.7    0.00 
 207    3:30   0.00   83.2    71    3.1   349     3.8   979.6    0.00 
 207    3:40   0.00   82.8    72    2.1     7     3.8   979.6    0.00 
 207    3:50   0.00   82.8    72    1.6    58     2.3   979.7    0.00 
 207    4:00   0.00   82.7    72    1.5    58     2.4   979.9    0.00 
 207    4:10   0.00   82.3    72    0.7   173     1.8   980.1    0.00 
 207    4:20   0.00   81.5    72    2.1   177     2.6   980.3    0.00 
 207    4:30   0.00   81.8    74    2.9   164     4.4   980.5    0.00 
 207    4:40   0.00   82.1    74    1.0   196     3.7   980.6    0.00 
 207    4:50   0.00   82.1    74    1.2   109     2.3   980.7    0.00 
 207    5:00   0.00   82.2    74    0.5    93     1.8   981.0    0.00 
 207    5:10   0.01   81.8    74    0.3   317     0.9   981.2    0.00 
 207    5:20   0.02   82.4    73    0.4    61     1.2   981.4    0.00 
 207    5:30   0.02   83.1    71    0.0    26     0.4   981.6    0.00 
 207    5:40   0.02   83.0    72    0.0     0     0.0   981.8    0.00 
 207    5:50   0.04   82.8    72    0.5    61     1.5   981.8    0.00 
 207    6:00   0.06   83.2    71    1.2    12     2.0   981.7    0.00 
 207    6:10   0.08   83.7    71    2.4    22     3.7   981.9    0.00 
 207    6:20   0.13   84.5    70    3.5    38     4.6   982.1    0.00 
 207    6:30   0.17   85.3    69    2.7    36     4.5   982.2    0.00 
 207    6:40   0.14   86.0    68    1.5    20     2.7   982.3    0.00 
 207    6:50   0.21   86.3    67    2.5    27     3.8   982.3    0.00 
 207    7:00   0.32   87.3    65    3.1    19     5.3   982.3    0.00 
 207    7:10   0.37   88.7    62    3.0   357     5.5   982.3    0.00 
 207    7:20   0.41   89.7    60    2.7    89     5.0   982.3    0.00 
 207    7:30   0.39   91.4    54    2.2    71     4.2   982.3    0.00 

Return to Anza Borrego Desert State Park graphs page.


Western Regional Climate Center,wrcc@dri.edu